Time;durP1;ratioP1;P1;durP2;ratioP2;P2;SDS_P1;SDS_P2;PMS_P1;PMS_P2;Temp;Humidity;BMP_temperature;BMP_pressure;BME280_temperature;BME280_humidity;BME280_pressure;Samples;Min_cycle;Max_cycle;Signal;HPM_P1;HPM_P2
2023/10/10 00:00:23;;;;;;;16.10;5.97;;;14.20;1.00;;;;;;5028101;28;20799;-75
2023/10/10 00:02:51;;;;;;;16.00;6.63;;;14.20;1.00;;;;;;5021461;28;20468;-74
2023/10/10 00:05:18;;;;;;;22.73;6.93;;;14.20;1.00;;;;;;5027642;28;20428;-76
2023/10/10 00:07:44;;;;;;;14.90;6.73;;;14.10;1.00;;;;;;5028397;28;20501;-76
2023/10/10 00:10:13;;;;;;;13.33;6.63;;;14.00;1.00;;;;;;5028995;28;20432;-76
2023/10/10 00:12:39;;;;;;;15.30;7.23;;;14.00;1.00;;;;;;5028325;28;20198;-76
2023/10/10 00:15:11;;;;;;;13.07;5.97;;;14.00;1.00;;;;;;5028834;28;20432;-77
2023/10/10 00:17:37;;;;;;;15.07;5.90;;;14.00;1.00;;;;;;5026789;28;20436;-75
2023/10/10 00:20:22;;;;;;;16.93;5.93;;;13.90;1.00;;;;;;5029292;28;20435;-75
2023/10/10 00:22:48;;;;;;;11.00;6.00;;;13.80;1.00;;;;;;5027109;28;20291;-75
2023/10/10 00:25:24;;;;;;;16.33;6.60;;;13.70;1.00;;;;;;5024329;28;20613;-75
2023/10/10 00:27:55;;;;;;;17.23;6.00;;;13.60;1.00;;;;;;5031402;28;20821;-74
2023/10/10 00:30:22;;;;;;;15.20;6.83;;;13.60;1.00;;;;;;5023962;28;20429;-75
2023/10/10 00:32:50;;;;;;;11.70;6.13;;;13.50;1.00;;;;;;5020271;28;20540;-77
2023/10/10 00:35:17;;;;;;;13.90;6.73;;;13.50;1.00;;;;;;5029753;28;20424;-75
2023/10/10 00:37:44;;;;;;;14.77;6.63;;;13.50;1.00;;;;;;5028843;28;20462;-74
2023/10/10 00:40:15;;;;;;;18.07;5.87;;;13.50;1.00;;;;;;5029524;28;20810;-73
2023/10/10 00:42:41;;;;;;;15.57;5.90;;;13.50;1.00;;;;;;5028531;28;21035;-78
2023/10/10 00:45:15;;;;;;;18.30;7.00;;;13.40;1.00;;;;;;5034891;28;20432;-76
2023/10/10 00:47:52;;;;;;;13.60;5.87;;;13.40;1.00;;;;;;5026871;28;20541;-74
2023/10/10 00:50:20;;;;;;;17.40;5.97;;;13.40;1.00;;;;;;5023652;28;20448;-75
2023/10/10 00:52:51;;;;;;;15.00;6.90;;;13.30;1.00;;;;;;5028985;28;20972;-76
2023/10/10 00:55:21;;;;;;;14.20;7.10;;;13.20;1.00;;;;;;5027891;28;20451;-76
2023/10/10 00:57:55;;;;;;;13.23;6.50;;;13.20;1.00;;;;;;5029194;28;20643;-76
2023/10/10 01:00:24;;;;;;;18.30;6.30;;;13.20;1.00;;;;;;5023699;28;20742;-74
2023/10/10 01:02:56;;;;;;;15.13;6.00;;;13.20;1.00;;;;;;5028621;28;20510;-76
2023/10/10 01:05:32;;;;;;;17.10;6.40;;;13.10;1.00;;;;;;5024384;28;20479;-76
2023/10/10 01:07:59;;;;;;;15.73;6.07;;;13.10;1.00;;;;;;5026151;28;20424;-75
2023/10/10 01:10:24;;;;;;;16.57;5.90;;;13.10;1.00;;;;;;5028585;28;20496;-76
2023/10/10 01:12:50;;;;;;;16.63;6.87;;;13.10;1.00;;;;;;5029208;28;20540;-76
2023/10/10 01:15:16;;;;;;;13.40;6.30;;;13.10;1.00;;;;;;5031704;28;20182;-76
2023/10/10 01:17:43;;;;;;;14.33;7.03;;;13.00;1.00;;;;;;5031097;28;20173;-77
2023/10/10 01:20:25;;;;;;;19.17;6.20;;;13.00;1.00;;;;;;5028968;28;20462;-76
2023/10/10 01:22:56;;;;;;;18.90;6.87;;;11.60;1.00;;;;;;5027905;28;20785;-74
2023/10/10 01:25:40;;;;;;;13.63;5.87;;;13.00;1.00;;;;;;5028966;28;20495;-75
2023/10/10 01:28:33;;;;;;;18.00;6.40;;;13.00;1.00;;;;;;5028493;28;21061;-76
2023/10/10 01:30:59;;;;;;;27.20;6.73;;;13.00;1.00;;;;;;5026114;28;20425;-75
2023/10/10 01:33:41;;;;;;;18.03;6.83;;;12.90;1.00;;;;;;5033097;28;20498;-79
2023/10/10 01:36:19;;;;;;;14.33;5.73;;;12.90;1.00;;;;;;5023768;28;20228;-77
2023/10/10 01:38:56;;;;;;;13.70;6.33;;;12.90;1.00;;;;;;5027768;28;20428;-76
2023/10/10 01:41:33;;;;;;;14.07;5.80;;;13.00;1.00;;;;;;5032258;28;20519;-76
2023/10/10 01:44:10;;;;;;;15.23;6.13;;;13.00;1.00;;;;;;5028313;28;20742;-76
2023/10/10 01:46:35;;;;;;;15.00;6.10;;;13.00;1.00;;;;;;5028126;28;20431;-77
2023/10/10 01:49:02;;;;;;;14.30;7.10;;;13.40;1.00;;;;;;5031177;28;20415;-75
2023/10/10 01:51:33;;;;;;;18.27;6.07;;;13.00;1.00;;;;;;5029154;28;20173;-77
2023/10/10 01:54:15;;;;;;;15.30;6.10;;;13.00;1.00;;;;;;5027469;28;20970;-76
2023/10/10 01:56:42;;;;;;;16.20;7.03;;;12.90;1.00;;;;;;5029934;28;20432;-76
2023/10/10 01:59:13;;;;;;;14.20;6.63;;;12.90;1.00;;;;;;5030904;28;20915;-77
2023/10/10 02:01:39;;;;;;;13.40;6.33;;;12.90;1.00;;;;;;5031870;28;20464;-75
2023/10/10 02:04:07;;;;;;;15.87;6.17;;;12.90;1.00;;;;;;5032475;28;20428;-76
2023/10/10 02:06:35;;;;;;;26.33;7.27;;;12.90;1.00;;;;;;5031595;28;20778;-76
2023/10/10 02:09:27;;;;;;;16.03;6.70;;;12.90;1.00;;;;;;5032510;28;20783;-76
2023/10/10 02:12:04;;;;;;;14.57;6.20;;;12.90;1.00;;;;;;5031634;28;20483;-76
2023/10/10 02:14:30;;;;;;;11.63;5.17;;;12.90;1.00;;;;;;5032687;28;20416;-77
2023/10/10 02:16:59;;;;;;;20.43;6.13;;;12.90;1.00;;;;;;5028150;28;20452;-76
2023/10/10 02:19:39;;;;;;;13.40;6.70;;;12.90;1.00;;;;;;5031829;28;20174;-76
2023/10/10 02:22:19;;;;;;;16.77;6.03;;;12.90;1.00;;;;;;5031830;28;20887;-77
2023/10/10 02:24:49;;;;;;;10.67;5.47;;;12.80;1.00;;;;;;5030364;28;20434;-76
2023/10/10 02:27:19;;;;;;;11.33;6.30;;;12.80;1.00;;;;;;5028577;28;20462;-75
2023/10/10 02:29:49;;;;;;;16.50;6.60;;;12.80;1.00;;;;;;5031341;28;20459;-78
2023/10/10 02:32:21;;;;;;;13.07;6.80;;;12.80;1.00;;;;;;5031212;28;20462;-76
2023/10/10 02:35:09;;;;;;;12.00;5.97;;;12.80;1.00;;;;;;5031644;28;20413;-77
2023/10/10 02:40:12;;;;;;;10.30;5.70;;;12.80;1.00;;;;;;5029991;28;20433;-74
2023/10/10 02:42:37;;;;;;;13.80;6.33;;;12.70;1.00;;;;;;5027559;28;20474;-77
2023/10/10 02:45:04;;;;;;;16.30;6.57;;;12.60;1.00;;;;;;5020707;28;20432;-76
2023/10/10 02:47:30;;;;;;;14.20;5.57;;;12.60;1.00;;;;;;5025338;28;20560;-77
2023/10/10 02:50:01;;;;;;;15.47;6.33;;;12.60;1.00;;;;;;5023134;28;20422;-76
2023/10/10 02:52:28;;;;;;;13.03;6.10;;;12.60;1.00;;;;;;5028612;28;20195;-76
2023/10/10 02:54:54;;;;;;;11.27;6.30;;;12.60;1.00;;;;;;5029446;28;20460;-75
2023/10/10 02:59:52;;;;;;;14.93;6.30;;;12.50;1.00;;;;;;5027217;28;20198;-77
2023/10/10 03:02:29;;;;;;;12.10;6.10;;;12.50;1.00;;;;;;5019423;28;20502;-76
2023/10/10 03:05:06;;;;;;;18.73;6.43;;;12.50;1.00;;;;;;5025668;28;20472;-76
2023/10/10 03:07:33;;;;;;;17.40;6.50;;;12.50;1.00;;;;;;5023904;28;20502;-76
2023/10/10 03:12:41;;;;;;;15.87;7.10;;;12.50;1.00;;;;;;5023029;28;20777;-76
2023/10/10 03:15:29;;;;;;;13.70;5.30;;;12.50;1.00;;;;;;5030328;28;20496;-76
2023/10/10 03:25:45;;;;;;;15.93;6.33;;;12.40;1.00;;;;;;5027033;28;20429;-77
2023/10/10 03:31:10;;;;;;;10.63;5.63;;;12.40;1.00;;;;;;5029437;28;20429;-77
2023/10/10 05:25:23;;;;;;;11.33;6.60;;;13.30;1.00;;;;;;5029764;28;20494;-78
2023/10/10 05:27:51;;;;;;;13.00;5.70;;;11.30;1.00;;;;;;5027520;28;20929;-72
2023/10/10 05:30:23;;;;;;;14.40;6.40;;;11.30;1.00;;;;;;5028790;28;20544;-75
2023/10/10 05:33:02;;;;;;;12.00;5.63;;;11.40;1.00;;;;;;5038529;28;20466;-78
2023/10/10 05:35:29;;;;;;;12.50;5.43;;;11.40;1.00;;;;;;5032189;28;20404;-75
2023/10/10 05:37:55;;;;;;;17.40;5.87;;;11.30;1.00;;;;;;5032172;28;20428;-76
2023/10/10 05:40:21;;;;;;;14.07;6.00;;;11.30;1.00;;;;;;5031105;28;20443;-73
2023/10/10 05:42:46;;;;;;;15.30;5.75;;;11.30;1.00;;;;;;5032359;28;20876;-74
2023/10/10 05:45:14;;;;;;;12.37;6.53;;;11.30;1.00;;;;;;5032388;28;20180;-75
2023/10/10 05:47:40;;;;;;;9.90;5.53;;;11.40;1.00;;;;;;5032547;28;20170;-74
2023/10/10 05:50:10;;;;;;;17.93;6.30;;;11.40;1.00;;;;;;5034412;28;20416;-75
2023/10/10 05:52:38;;;;;;;16.23;5.57;;;11.40;1.00;;;;;;5034251;28;20463;-74
2023/10/10 05:55:10;;;;;;;11.80;5.93;;;11.40;1.00;;;;;;5032146;28;20833;-72
2023/10/10 05:57:39;;;;;;;11.30;6.03;;;11.50;1.00;;;;;;5032381;28;20424;-73
2023/10/10 06:00:15;;;;;;;12.57;5.93;;;11.60;1.00;;;;;;5030279;28;20498;-71
2023/10/10 06:02:47;;;;;;;12.20;6.07;;;11.60;1.00;;;;;;5029171;28;20474;-71
2023/10/10 06:05:17;;;;;;;13.03;6.50;;;11.70;1.00;;;;;;5028577;28;20432;-72
2023/10/10 06:07:43;;;;;;;11.80;6.00;;;11.70;1.00;;;;;;5023497;28;20530;-72
2023/10/10 06:10:16;;;;;;;12.23;6.77;;;11.80;1.00;;;;;;5031224;28;20428;-74
2023/10/10 06:12:43;;;;;;;11.40;6.37;;;11.90;1.00;;;;;;5025009;28;21008;-72
2023/10/10 06:15:08;;;;;;;14.57;5.70;;;12.00;1.00;;;;;;5027851;28;20456;-77
2023/10/10 06:17:34;;;;;;;14.20;6.33;;;12.00;1.00;;;;;;5023345;28;20518;-73
2023/10/10 06:20:00;;;;;;;15.67;5.73;;;12.20;1.00;;;;;;5024507;28;20188;-76
2023/10/10 06:22:29;;;;;;;13.53;6.33;;;12.30;1.00;;;;;;5025947;28;20218;-73
2023/10/10 06:24:58;;;;;;;12.70;6.77;;;12.40;1.00;;;;;;5020730;28;20428;-72
2023/10/10 06:27:28;;;;;;;11.37;6.27;;;12.50;1.00;;;;;;5025870;28;20447;-73
2023/10/10 06:30:00;;;;;;;12.63;6.80;;;12.60;1.00;;;;;;5029448;28;20498;-72
2023/10/10 06:32:30;;;;;;;15.80;5.97;;;12.80;1.00;;;;;;5032203;28;20734;-73
2023/10/10 06:37:43;;;;;;;10.37;5.83;;;13.10;1.00;;;;;;5026089;28;20532;-75
2023/10/10 06:40:10;;;;;;;13.00;6.47;;;13.30;1.00;;;;;;5026315;28;20586;-74
2023/10/10 06:42:36;;;;;;;14.57;6.77;;;13.50;1.00;;;;;;5029288;28;20217;-75
2023/10/10 06:45:07;;;;;;;15.20;6.50;;;13.70;1.00;;;;;;5029939;28;20990;-74
2023/10/10 06:47:34;;;;;;;12.70;6.33;;;13.90;1.00;;;;;;5021521;28;21662;-75
2023/10/10 06:50:01;;;;;;;11.10;6.10;;;14.00;1.00;;;;;;5017968;28;20434;-72
2023/10/10 06:52:27;;;;;;;12.10;6.50;;;14.20;1.00;;;;;;5021716;28;20433;-76
2023/10/10 06:54:56;;;;;;;12.93;6.03;;;14.30;1.00;;;;;;5016048;28;20432;-74
2023/10/10 06:57:35;;;;;;;13.40;6.00;;;14.50;1.00;;;;;;5024820;28;20429;-78
2023/10/10 07:00:09;;;;;;;13.40;6.27;;;14.60;1.00;;;;;;5030413;28;20802;-73
2023/10/10 07:02:39;;;;;;;15.17;6.63;;;14.80;1.00;;;;;;5029143;28;20471;-75
2023/10/10 07:05:07;;;;;;;12.90;6.63;;;14.90;1.00;;;;;;5017927;28;20436;-74
2023/10/10 07:07:37;;;;;;;17.50;6.70;;;15.00;1.00;;;;;;5026356;28;20431;-76
2023/10/10 07:10:09;;;;;;;11.03;6.23;;;18.40;1.00;;;;;;5022668;28;20429;-74
2023/10/10 07:12:35;;;;;;;13.77;6.37;;;15.30;1.00;;;;;;5021962;28;20484;-75
2023/10/10 07:15:06;;;;;;;11.17;6.10;;;15.60;1.00;;;;;;5026273;28;20483;-76
2023/10/10 07:17:32;;;;;;;14.20;7.07;;;15.80;1.00;;;;;;5029128;28;20170;-72
2023/10/10 07:22:34;;;;;;;11.93;5.97;;;16.10;1.00;;;;;;5025425;28;20576;-76
2023/10/10 07:25:59;;;;;;;15.10;6.50;;;16.20;1.00;;;;;;5019315;28;20428;-73
2023/10/10 07:28:00;;;;;;;18.77;6.47;;;16.30;1.00;;;;;;5025026;28;20462;-75
2023/10/10 07:30:34;;;;;;;12.73;6.47;;;16.40;1.00;;;;;;5028109;28;20542;-74
2023/10/10 07:33:02;;;;;;;25.67;7.23;;;16.50;1.00;;;;;;5028242;28;20784;-75
2023/10/10 07:35:28;;;;;;;11.63;6.77;;;16.50;1.00;;;;;;5020437;28;20788;-74
2023/10/10 07:37:58;;;;;;;16.00;6.87;;;16.60;1.00;;;;;;5028498;28;20442;-72
2023/10/10 07:40:31;;;;;;;19.03;7.50;;;16.80;1.00;;;;;;5023643;28;20656;-75
2023/10/10 07:42:59;;;;;;;22.13;6.50;;;16.90;1.00;;;;;;5015867;28;20499;-73
2023/10/10 07:45:43;;;;;;;13.70;6.73;;;17.00;1.00;;;;;;5024291;28;20475;-74
2023/10/10 07:50:35;;;;;;;19.50;7.30;;;17.20;1.00;;;;;;5029332;28;20442;-74
2023/10/10 07:53:06;;;;;;;15.03;6.80;;;17.30;1.00;;;;;;5027497;28;20456;-78
2023/10/10 07:55:34;;;;;;;22.30;7.37;;;17.40;1.00;;;;;;5033535;28;20182;-74
2023/10/10 07:58:00;;;;;;;14.00;7.50;;;17.60;1.00;;;;;;5028502;28;20424;-77
2023/10/10 08:00:35;;;;;;;22.10;7.30;;;17.70;1.00;;;;;;5026619;28;20440;-74
2023/10/10 08:03:02;;;;;;;18.43;7.70;;;17.80;1.00;;;;;;5023431;28;20224;-75
2023/10/10 08:05:29;;;;;;;19.40;7.23;;;17.90;1.00;;;;;;5027263;28;20934;-74
2023/10/10 08:07:55;;;;;;;14.10;6.90;;;17.90;1.00;;;;;;5022774;28;20456;-75
2023/10/10 08:10:31;;;;;;;14.80;6.93;;;17.90;1.00;;;;;;5025109;28;20432;-75
2023/10/10 08:12:58;;;;;;;20.57;7.47;;;18.00;1.00;;;;;;5026309;28;20996;-73
2023/10/10 08:15:26;;;;;;;20.27;7.03;;;18.10;1.00;;;;;;5026276;28;20735;-75
2023/10/10 08:17:55;;;;;;;22.43;8.50;;;18.00;1.00;;;;;;5026534;28;20526;-76
2023/10/10 08:21:08;;;;;;;19.50;8.10;;;18.10;1.00;;;;;;5028907;28;20926;-75
2023/10/10 08:23:24;;;;;;;16.73;7.20;;;18.10;1.00;;;;;;5024006;28;20523;-73
2023/10/10 08:25:51;;;;;;;24.33;8.10;;;18.30;1.00;;;;;;5023358;28;20811;-76
2023/10/10 08:28:16;;;;;;;14.73;7.63;;;18.40;1.00;;;;;;5026093;28;20468;-76
2023/10/10 08:30:42;;;;;;;19.03;8.13;;;18.70;1.00;;;;;;5026091;28;20937;-74
2023/10/10 08:33:07;;;;;;;24.03;8.00;;;19.50;1.00;;;;;;5025932;28;20688;-76
2023/10/10 08:35:38;;;;;;;20.53;7.43;;;20.30;1.00;;;;;;5025970;28;20181;-74
2023/10/10 08:38:05;;;;;;;20.73;7.60;;;21.20;1.00;;;;;;5026980;28;20185;-77
2023/10/10 08:40:35;;;;;;;21.20;7.90;;;22.30;1.00;;;;;;5026396;28;20446;-75
2023/10/10 08:43:03;;;;;;;20.77;8.53;;;23.00;1.00;;;;;;5017332;28;20968;-74
2023/10/10 08:45:39;;;;;;;19.17;8.10;;;23.30;1.00;;;;;;5032049;28;20506;-77
2023/10/10 08:48:12;;;;;;;27.93;8.70;;;23.40;1.00;;;;;;5029992;28;20431;-76
2023/10/10 08:50:41;;;;;;;20.47;8.00;;;23.80;1.00;;;;;;5029590;28;20434;-75
2023/10/10 08:53:12;;;;;;;22.33;8.37;;;24.70;1.00;;;;;;5031890;28;20890;-74
2023/10/10 08:55:41;;;;;;;20.33;7.70;;;25.40;1.00;;;;;;5033485;28;20435;-75
2023/10/10 08:58:08;;;;;;;18.73;8.57;;;26.00;1.00;;;;;;5026076;28;20460;-76
2023/10/10 09:00:35;;;;;;;23.23;8.17;;;26.40;1.00;;;;;;5029015;28;20510;-74
2023/10/10 09:03:01;;;;;;;26.03;8.37;;;26.30;1.00;;;;;;5036603;28;20497;-75
2023/10/10 09:05:29;;;;;;;16.60;8.27;;;26.70;1.00;;;;;;5029921;28;20670;-76
2023/10/10 09:08:05;;;;;;;19.83;7.90;;;27.00;1.00;;;;;;5026697;28;20177;-74
2023/10/10 09:10:39;;;;;;;23.07;8.50;;;27.00;1.00;;;;;;5034051;28;20169;-75
2023/10/10 09:13:07;;;;;;;28.63;8.70;;;26.80;1.00;;;;;;5029748;28;20622;-74
2023/10/10 09:15:36;;;;;;;17.63;7.77;;;27.10;1.00;;;;;;5032249;28;20197;-75
2023/10/10 09:18:17;;;;;;;15.73;7.30;;;27.40;1.00;;;;;;5028912;28;20173;-75
2023/10/10 09:20:46;;;;;;;22.20;8.03;;;28.10;1.00;;;;;;5027558;28;20173;-76
2023/10/10 09:23:24;;;;;;;18.85;7.18;;;28.70;1.00;;;;;;5034755;28;20838;-75
2023/10/10 09:26:12;;;;;;;25.77;8.00;;;28.80;1.00;;;;;;5024017;28;20260;-77
2023/10/10 09:28:45;;;;;;;19.60;7.05;;;28.90;1.00;;;;;;5031128;28;20189;-75
2023/10/10 09:31:20;;;;;;;11.13;6.32;;;29.30;1.00;;;;;;5026838;28;20203;-74
2023/10/10 09:33:54;;;;;;;18.73;7.45;;;29.40;1.00;;;;;;5028885;28;20223;-75
2023/10/10 09:36:20;;;;;;;21.33;7.82;;;29.00;1.00;;;;;;5031918;28;20183;-77
2023/10/10 09:38:47;;;;;;;14.82;7.68;;;28.90;1.00;;;;;;5038464;28;20180;-75
2023/10/10 09:41:29;;;;;;;25.80;7.63;;;29.40;1.00;;;;;;5024428;28;20243;-75
2023/10/10 09:49:46;;;;;;;16.45;6.78;;;30.10;1.00;;;;;;5025760;28;20184;-78
2023/10/10 09:57:42;;;;;;;18.38;7.43;;;31.30;1.00;;;;;;5021314;28;20178;-75
2023/10/10 10:00:15;;;;;;;18.23;6.72;;;31.60;1.00;;;;;;5024192;28;20181;-75
2023/10/10 10:02:47;;;;;;;20.45;7.30;;;31.80;1.00;;;;;;5029060;28;20255;-74
2023/10/10 10:05:18;;;;;;;14.63;6.43;;;31.60;1.00;;;;;;5022731;28;20207;-78
2023/10/10 10:08:21;;;;;;;16.38;7.43;;;31.30;1.00;;;;;;5021682;28;20261;-74
2023/10/10 10:10:56;;;;;;;16.88;7.13;;;30.90;1.00;;;;;;5020926;28;20177;-79
2023/10/10 10:13:49;;;;;;;13.38;6.32;;;30.50;1.00;;;;;;5027489;28;20201;-76
2023/10/10 10:16:39;;;;;;;25.38;6.85;;;30.60;1.00;;;;;;5021819;28;20169;-74
2023/10/10 10:19:15;;;;;;;16.65;6.60;;;30.60;1.00;;;;;;5029949;28;20930;-75
2023/10/10 10:21:52;;;;;;;16.10;6.15;;;30.00;1.00;;;;;;5029123;28;20274;-78
2023/10/10 10:24:30;;;;;;;13.25;6.53;;;29.60;1.00;;;;;;5030306;28;20204;-78
2023/10/10 10:27:31;;;;;;;20.80;6.82;;;29.60;1.00;;;;;;5025733;28;20191;-75
2023/10/10 10:32:44;;;;;;;13.93;6.22;;;30.00;1.00;;;;;;5028010;28;20217;-76
2023/10/10 10:35:15;;;;;;;19.60;6.95;;;30.10;1.00;;;;;;5031403;28;20207;-75
2023/10/10 10:37:42;;;;;;;18.10;7.15;;;30.30;1.00;;;;;;5025248;28;20261;-74
2023/10/10 10:42:53;;;;;;;22.35;7.40;;;31.20;1.00;;;;;;5030306;28;20636;-76
2023/10/10 10:45:36;;;;;;;23.17;7.18;;;31.60;1.00;;;;;;5030043;28;20231;-75
2023/10/10 10:48:06;;;;;;;16.25;6.60;;;31.80;1.00;;;;;;5028355;28;20228;-76
2023/10/10 10:50:45;;;;;;;19.02;7.15;;;31.90;1.00;;;;;;5021465;28;20283;-76
2023/10/10 10:53:34;;;;;;;15.40;6.18;;;31.90;1.00;;;;;;5034803;28;20205;-75
2023/10/10 11:01:27;;;;;;;14.75;6.40;;;31.80;1.00;;;;;;5025513;28;20181;-75
2023/10/10 11:03:56;;;;;;;15.00;6.32;;;31.90;1.00;;;;;;5023989;28;20228;-74
2023/10/10 11:06:26;;;;;;;15.88;6.47;;;32.20;1.00;;;;;;5023933;28;20193;-78
2023/10/10 11:08:52;;;;;;;17.17;6.47;;;33.00;1.00;;;;;;5030871;28;20185;-75
2023/10/10 11:16:46;;;;;;;13.45;5.85;;;34.70;1.00;;;;;;5030597;28;20207;-76
2023/10/10 11:19:38;;;;;;;15.85;6.65;;;34.70;1.00;;;;;;5031774;28;20213;-74
2023/10/10 11:22:05;;;;;;;13.25;6.53;;;34.30;1.00;;;;;;5028100;28;20229;-75
2023/10/10 11:24:32;;;;;;;12.45;5.75;;;33.40;1.00;;;;;;5027483;28;20235;-76
2023/10/10 11:27:13;;;;;;;17.20;6.70;;;32.70;1.00;;;;;;5028123;28;20169;-74
2023/10/10 11:29:50;;;;;;;15.75;6.18;;;32.50;1.00;;;;;;5028872;28;20178;-75
2023/10/10 11:32:25;;;;;;;17.10;6.13;;;32.50;1.00;;;;;;5022295;28;20224;-79
2023/10/10 11:34:56;;;;;;;15.35;5.80;;;32.50;1.00;;;;;;5018190;28;20177;-76
2023/10/10 11:37:25;;;;;;;14.32;6.40;;;32.10;1.00;;;;;;5032994;28;20177;-74
2023/10/10 11:40:01;;;;;;;19.50;6.28;;;31.80;1.00;;;;;;5031743;28;20183;-75
2023/10/10 11:42:30;;;;;;;15.32;6.22;;;31.80;1.00;;;;;;5038179;28;20212;-75
2023/10/10 11:45:11;;;;;;;16.55;6.32;;;32.10;1.00;;;;;;5031140;28;20180;-76
2023/10/10 11:47:42;;;;;;;24.52;7.30;;;31.30;1.00;;;;;;5017331;28;20701;-76
2023/10/10 11:50:11;;;;;;;12.80;6.40;;;31.30;1.00;;;;;;5025026;28;20363;-81
2023/10/10 11:52:57;;;;;;;16.33;6.55;;;31.80;1.00;;;;;;5019883;28;20704;-75
2023/10/10 11:55:23;;;;;;;12.85;6.60;;;31.80;1.00;;;;;;5031606;28;20558;-75
2023/10/10 11:57:49;;;;;;;13.15;6.75;;;31.70;1.00;;;;;;5024310;28;20623;-75
2023/10/10 12:00:22;;;;;;;16.10;5.90;;;31.60;1.00;;;;;;5026385;28;20185;-75
2023/10/10 12:02:51;;;;;;;12.82;6.72;;;31.80;1.00;;;;;;5022757;28;20274;-74
2023/10/10 12:07:58;;;;;;;10.52;5.70;;;32.20;1.00;;;;;;5019646;28;20173;-74
2023/10/10 12:10:31;;;;;;;19.60;5.78;;;32.80;1.00;;;;;;5026068;28;20174;-76
2023/10/10 12:12:56;;;;;;;15.75;6.63;;;33.40;1.00;;;;;;5027558;28;20287;-74
2023/10/10 12:15:22;;;;;;;11.95;6.68;;;33.30;1.00;;;;;;5029639;28;20260;-75
2023/10/10 12:17:53;;;;;;;13.25;6.10;;;33.10;1.00;;;;;;5016572;28;20201;-76
2023/10/10 12:20:19;;;;;;;14.75;6.50;;;32.60;1.00;;;;;;5028043;28;20185;-73
2023/10/10 12:22:44;;;;;;;15.02;6.05;;;32.20;1.00;;;;;;5032591;28;20559;-76
2023/10/10 12:25:13;;;;;;;14.35;5.90;;;32.00;1.00;;;;;;5024927;28;20266;-78
2023/10/10 12:27:46;;;;;;;27.00;6.45;;;31.50;1.00;;;;;;5028126;28;20185;-75
2023/10/10 12:30:18;;;;;;;12.13;5.85;;;31.00;1.00;;;;;;5028153;28;20200;-73
2023/10/10 12:32:49;;;;;;;11.90;6.35;;;31.10;1.00;;;;;;5021908;28;20201;-75
2023/10/10 12:35:15;;;;;;;13.75;6.30;;;31.20;1.00;;;;;;5023335;28;20172;-77
2023/10/10 12:37:44;;;;;;;15.77;6.10;;;30.70;1.00;;;;;;5025973;28;20588;-76
2023/10/10 12:40:11;;;;;;;18.30;6.35;;;30.60;1.00;;;;;;5040497;28;20566;-75
2023/10/10 12:42:36;;;;;;;20.80;6.72;;;31.00;1.00;;;;;;5027563;28;20295;-74
2023/10/10 12:45:03;;;;;;;14.13;6.38;;;30.90;1.00;;;;;;5032963;28;20260;-74
2023/10/10 12:47:31;;;;;;;15.63;6.05;;;30.70;1.00;;;;;;5027104;28;20667;-75
2023/10/10 12:50:00;;;;;;;14.57;6.15;;;30.30;1.00;;;;;;5025891;28;20335;-77
2023/10/10 12:52:35;;;;;;;15.60;6.97;;;29.20;1.00;;;;;;5043286;28;20340;-75
2023/10/10 12:55:09;;;;;;;11.80;6.00;;;28.60;1.00;;;;;;5025123;28;20239;-75
2023/10/10 12:57:36;;;;;;;15.90;6.33;;;28.30;1.00;;;;;;5022405;28;20267;-75
2023/10/10 13:00:23;;;;;;;12.47;7.13;;;27.80;1.00;;;;;;5020575;28;20227;-76
2023/10/10 13:02:48;;;;;;;18.57;6.97;;;28.10;1.00;;;;;;5024678;28;20208;-75
2023/10/10 13:05:16;;;;;;;13.90;5.43;;;28.10;1.00;;;;;;5026020;28;20204;-75
2023/10/10 13:07:43;;;;;;;15.97;6.30;;;28.10;1.00;;;;;;5019086;28;20219;-74
2023/10/10 13:10:13;;;;;;;14.20;6.90;;;28.30;1.00;;;;;;5029411;28;20181;-74
2023/10/10 13:12:39;;;;;;;14.53;6.83;;;28.50;1.00;;;;;;5028647;28;20201;-75
2023/10/10 13:15:17;;;;;;;14.57;6.67;;;28.60;1.00;;;;;;5026456;28;20559;-75
2023/10/10 13:20:27;;;;;;;21.20;6.57;;;29.00;1.00;;;;;;5025818;28;20184;-75
2023/10/10 13:22:53;;;;;;;14.70;6.50;;;29.50;1.00;;;;;;5023763;28;20196;-74
2023/10/10 13:25:20;;;;;;;15.40;7.15;;;30.10;1.00;;;;;;5028487;28;20181;-76
2023/10/10 13:27:55;;;;;;;22.88;6.47;;;30.80;1.00;;;;;;5020112;28;20185;-74
2023/10/10 13:30:20;;;;;;;15.45;6.45;;;31.10;1.00;;;;;;5023570;28;20177;-74
2023/10/10 13:32:46;;;;;;;11.40;6.22;;;31.50;1.00;;;;;;5021315;28;20741;-76
2023/10/10 13:35:11;;;;;;;12.60;6.38;;;31.50;1.00;;;;;;5043043;28;20192;-75
2023/10/10 13:37:41;;;;;;;13.45;6.35;;;30.70;1.00;;;;;;5014517;28;20591;-78
2023/10/10 13:40:07;;;;;;;19.25;6.90;;;30.30;1.00;;;;;;5027830;28;20231;-76
2023/10/10 13:42:34;;;;;;;17.23;6.13;;;30.10;1.00;;;;;;5024459;28;20210;-75
2023/10/10 13:45:11;;;;;;;13.40;6.75;;;30.00;1.00;;;;;;5020066;28;20604;-74
2023/10/10 13:47:39;;;;;;;15.65;6.13;;;29.90;1.00;;;;;;5025729;28;20181;-74
2023/10/10 13:50:28;;;;;;;15.70;6.40;;;29.70;1.00;;;;;;5021604;28;20568;-75
2023/10/10 13:52:53;;;;;;;15.23;6.57;;;29.10;1.00;;;;;;5026933;28;20753;-72
2023/10/10 13:55:19;;;;;;;16.38;6.22;;;28.30;1.00;;;;;;5025823;28;20190;-74
2023/10/10 13:57:44;;;;;;;16.85;6.28;;;28.10;1.00;;;;;;5028226;28;20260;-74
2023/10/10 14:00:29;;;;;;;14.93;6.45;;;28.10;1.00;;;;;;5029364;28;20189;-76
2023/10/10 14:03:14;;;;;;;18.73;6.20;;;27.80;1.00;;;;;;5027920;28;20211;-76
2023/10/10 14:05:59;;;;;;;17.73;7.20;;;27.80;1.00;;;;;;5030386;28;20212;-73
2023/10/10 14:08:25;;;;;;;14.57;6.30;;;27.80;1.00;;;;;;5029415;28;20227;-75
2023/10/10 14:10:53;;;;;;;18.50;6.53;;;28.10;1.00;;;;;;5023688;28;20185;-74
2023/10/10 14:13:19;;;;;;;13.97;6.43;;;28.30;1.00;;;;;;5015237;28;20227;-74
2023/10/10 14:15:55;;;;;;;18.43;7.03;;;28.20;1.00;;;;;;5031699;28;20230;-77
2023/10/10 14:18:47;;;;;;;17.07;7.20;;;28.20;1.00;;;;;;5028371;28;20168;-76
2023/10/10 14:21:13;;;;;;;13.50;6.30;;;27.90;1.00;;;;;;5016960;28;20281;-75
2023/10/10 14:23:40;;;;;;;12.00;6.30;;;27.60;1.00;;;;;;5026875;28;20607;-76
2023/10/10 14:26:13;;;;;;;15.50;6.33;;;27.50;1.00;;;;;;5030089;28;20264;-75
2023/10/10 14:28:40;;;;;;;17.57;6.87;;;27.20;1.00;;;;;;5028944;28;20724;-75
2023/10/10 14:31:11;;;;;;;16.37;6.60;;;27.00;1.00;;;;;;5030438;28;20182;-73
2023/10/10 14:33:39;;;;;;;22.80;7.13;;;26.90;1.00;;;;;;5022000;28;20698;-75
2023/10/10 14:36:05;;;;;;;15.23;6.73;;;26.80;1.00;;;;;;5035520;28;20264;-73
2023/10/10 14:38:31;;;;;;;15.57;7.03;;;26.80;1.00;;;;;;5031877;28;20691;-75
2023/10/10 14:40:57;;;;;;;14.40;6.67;;;26.80;1.00;;;;;;5030275;28;20177;-75
2023/10/10 14:43:23;;;;;;;17.73;6.90;;;26.60;1.00;;;;;;5032285;28;20279;-75
2023/10/10 14:45:48;;;;;;;14.37;6.60;;;26.50;1.00;;;;;;5027198;28;20181;-74
2023/10/10 14:48:18;;;;;;;18.30;6.77;;;26.30;1.00;;;;;;5033523;28;20222;-77
2023/10/10 14:50:44;;;;;;;15.90;6.57;;;26.20;1.00;;;;;;5021272;28;21009;-75
2023/10/10 14:53:10;;;;;;;15.83;6.40;;;26.00;1.00;;;;;;5027010;28;20220;-75
2023/10/10 14:55:40;;;;;;;15.47;6.30;;;26.00;1.00;;;;;;5030836;28;20428;-76
2023/10/10 14:58:09;;;;;;;12.00;6.30;;;25.90;1.00;;;;;;5031022;28;20177;-75
2023/10/10 15:00:39;;;;;;;18.07;7.43;;;25.80;1.00;;;;;;5026428;28;20430;-74
2023/10/10 15:03:12;;;;;;;14.67;6.67;;;25.70;1.00;;;;;;5017235;28;20951;-76
2023/10/10 15:05:47;;;;;;;13.43;6.60;;;25.70;1.00;;;;;;5020773;28;20435;-72
2023/10/10 15:08:13;;;;;;;18.63;7.40;;;25.60;1.00;;;;;;5031102;28;20434;-76
2023/10/10 15:10:40;;;;;;;16.60;6.77;;;25.50;1.00;;;;;;5029392;28;20423;-75
2023/10/10 15:13:08;;;;;;;13.73;6.87;;;25.50;1.00;;;;;;5027448;28;20930;-74
2023/10/10 15:15:35;;;;;;;18.73;7.17;;;25.30;1.00;;;;;;5027255;28;20429;-74
2023/10/10 15:18:01;;;;;;;19.73;6.73;;;25.30;1.00;;;;;;5021776;28;20448;-74
2023/10/10 15:20:27;;;;;;;15.37;6.63;;;25.20;1.00;;;;;;5023355;28;20431;-75
2023/10/10 15:22:53;;;;;;;16.93;6.70;;;25.20;1.00;;;;;;5028452;28;20204;-73
2023/10/10 15:25:21;;;;;;;18.93;6.47;;;25.10;1.00;;;;;;5031103;28;20756;-74
2023/10/10 15:27:47;;;;;;;18.73;6.30;;;25.00;1.00;;;;;;5024930;28;20493;-75
2023/10/10 15:30:15;;;;;;;28.73;6.97;;;25.00;1.00;;;;;;5027974;28;20531;-76
2023/10/10 15:32:46;;;;;;;12.40;5.83;;;24.80;1.00;;;;;;5023132;28;20209;-73
2023/10/10 15:35:13;;;;;;;20.67;6.27;;;24.80;1.00;;;;;;5026245;28;20734;-73
2023/10/10 15:37:45;;;;;;;16.33;6.50;;;24.80;1.00;;;;;;5022083;28;20437;-74
2023/10/10 15:40:20;;;;;;;14.57;6.57;;;24.70;1.00;;;;;;5030453;28;20458;-73
2023/10/10 15:42:50;;;;;;;14.50;6.20;;;24.60;1.00;;;;;;5023649;28;20460;-74
2023/10/10 15:45:20;;;;;;;23.40;6.50;;;24.60;1.00;;;;;;5022831;28;20956;-74
2023/10/10 15:47:52;;;;;;;17.00;6.73;;;24.50;1.00;;;;;;5028608;28;20419;-76
2023/10/10 15:50:18;;;;;;;20.07;6.77;;;24.50;1.00;;;;;;5020316;28;20559;-77
2023/10/10 15:52:54;;;;;;;15.97;6.37;;;24.50;1.00;;;;;;5023397;28;20506;-75
2023/10/10 15:55:23;;;;;;;16.30;7.20;;;24.40;1.00;;;;;;5023916;28;20423;-74
2023/10/10 15:57:52;;;;;;;15.33;6.37;;;24.40;1.00;;;;;;5028633;28;20956;-75